Time;durP1;ratioP1;P1;durP2;ratioP2;P2;SDS_P1;SDS_P2;PMS_P1;PMS_P2;Temp;Humidity;BMP_temperature;BMP_pressure;BME280_temperature;BME280_humidity;BME280_pressure;Samples;Min_cycle;Max_cycle;Signal;HPM_P1;HPM_P2
2024/01/16 00:01:43;;;;;;;2.55;1.00;;;22.60;43.20;;;;;;5118561;27;20034;-35
2024/01/16 00:04:10;;;;;;;3.75;1.10;;;22.50;43.00;;;;;;5112238;28;20032;-33
2024/01/16 00:06:40;;;;;;;1.52;1.00;;;22.50;42.70;;;;;;5117867;28;20051;-38
2024/01/16 00:09:07;;;;;;;1.60;0.90;;;22.50;42.40;;;;;;5112493;28;20063;-38
2024/01/16 00:11:33;;;;;;;3.38;1.13;;;22.60;42.10;;;;;;5120232;28;20035;-35
2024/01/16 00:13:59;;;;;;;2.67;1.20;;;22.60;42.40;;;;;;5119552;28;20102;-37
2024/01/16 00:16:25;;;;;;;3.45;1.17;;;22.60;43.10;;;;;;5122542;27;20023;-38
2024/01/16 00:18:52;;;;;;;2.67;1.10;;;22.50;42.60;;;;;;5117916;28;20082;-36
2024/01/16 00:21:18;;;;;;;1.70;1.13;;;22.50;42.70;;;;;;5117576;28;20043;-36
2024/01/16 00:23:44;;;;;;;3.83;1.05;;;22.50;42.50;;;;;;5120348;28;20027;-36
2024/01/16 00:26:20;;;;;;;1.45;1.00;;;22.50;42.50;;;;;;5115611;28;20032;-35
2024/01/16 00:28:47;;;;;;;1.55;1.10;;;22.60;42.40;;;;;;5113771;28;20059;-35
2024/01/16 00:31:13;;;;;;;1.20;0.95;;;22.60;42.40;;;;;;5117894;28;20578;-38
2024/01/16 00:33:39;;;;;;;2.28;1.20;;;22.60;42.40;;;;;;5121187;28;20050;-39
2024/01/16 00:36:06;;;;;;;3.53;1.10;;;22.50;42.40;;;;;;5120200;27;20477;-35
2024/01/16 00:38:35;;;;;;;1.27;0.80;;;22.50;42.40;;;;;;5117537;28;20044;-37
2024/01/16 00:41:01;;;;;;;1.20;0.98;;;22.50;42.40;;;;;;5117057;28;20066;-36
2024/01/16 00:43:27;;;;;;;1.02;0.77;;;22.50;42.60;;;;;;5115713;28;20038;-35
2024/01/16 00:45:53;;;;;;;2.05;1.20;;;22.50;42.40;;;;;;5121838;28;20039;-35
2024/01/16 00:48:20;;;;;;;1.45;1.00;;;22.50;42.40;;;;;;5121501;28;20028;-35
2024/01/16 00:50:49;;;;;;;1.38;1.00;;;22.50;42.40;;;;;;5115739;28;20413;-35
2024/01/16 00:53:17;;;;;;;2.92;0.90;;;22.50;42.50;;;;;;5116161;28;20035;-39
2024/01/16 00:55:43;;;;;;;2.30;0.80;;;22.40;42.50;;;;;;5115381;28;20035;-35
2024/01/16 00:58:09;;;;;;;1.13;0.80;;;22.40;42.50;;;;;;5105740;27;20024;-38
2024/01/16 01:00:37;;;;;;;1.35;0.90;;;22.40;42.50;;;;;;5121338;28;20443;-32
2024/01/16 01:03:06;;;;;;;1.10;0.93;;;22.40;42.50;;;;;;5110167;27;20051;-33
2024/01/16 01:05:33;;;;;;;2.15;1.00;;;22.50;42.50;;;;;;5105105;28;20031;-35
2024/01/16 01:08:00;;;;;;;2.58;1.10;;;22.50;42.40;;;;;;5114373;28;20020;-35
2024/01/16 01:10:27;;;;;;;1.67;0.98;;;22.40;42.50;;;;;;5109025;28;20554;-33
2024/01/16 01:12:54;;;;;;;2.90;1.27;;;22.40;42.50;;;;;;5110054;28;20083;-36
2024/01/16 01:15:21;;;;;;;2.03;1.00;;;22.40;42.50;;;;;;5114161;28;20061;-36
2024/01/16 01:17:51;;;;;;;1.08;0.98;;;22.40;42.60;;;;;;5112669;28;20031;-34
2024/01/16 01:20:18;;;;;;;1.63;1.10;;;22.40;42.50;;;;;;5106058;28;20046;-30
2024/01/16 01:22:46;;;;;;;1.38;0.95;;;22.40;42.50;;;;;;5107212;28;20047;-31
2024/01/16 01:25:13;;;;;;;1.20;1.10;;;22.40;42.50;;;;;;5105134;28;20545;-34
2024/01/16 01:27:40;;;;;;;1.65;1.10;;;22.40;42.50;;;;;;5106199;28;20043;-35
2024/01/16 01:30:11;;;;;;;1.55;1.10;;;22.30;42.50;;;;;;5112367;28;20047;-35
2024/01/16 01:32:43;;;;;;;1.63;1.20;;;22.30;43.10;;;;;;5112370;28;20080;-34
2024/01/16 01:35:14;;;;;;;2.33;0.93;;;22.30;42.60;;;;;;5107490;28;20028;-33
2024/01/16 01:37:41;;;;;;;1.10;0.95;;;22.40;42.50;;;;;;5104385;28;20108;-33
2024/01/16 01:40:08;;;;;;;1.98;1.23;;;22.40;42.60;;;;;;5108932;28;20027;-35
2024/01/16 01:42:35;;;;;;;1.60;1.05;;;22.40;42.60;;;;;;5108731;28;20038;-32
2024/01/16 01:45:03;;;;;;;1.40;1.00;;;22.30;42.60;;;;;;5111972;28;20095;-33
2024/01/16 01:47:31;;;;;;;1.50;1.08;;;22.30;42.60;;;;;;5103170;28;20040;-34
2024/01/16 01:49:58;;;;;;;1.30;1.10;;;22.30;42.60;;;;;;5111628;28;20024;-33
2024/01/16 01:52:25;;;;;;;0.93;0.70;;;22.40;42.60;;;;;;5106134;28;20031;-32
2024/01/16 01:54:52;;;;;;;1.30;0.85;;;22.40;42.60;;;;;;5108997;28;20875;-37
2024/01/16 01:57:20;;;;;;;1.58;1.10;;;22.30;42.60;;;;;;5112958;28;20035;-35
2024/01/16 01:59:47;;;;;;;2.08;1.20;;;22.30;42.70;;;;;;5112819;28;20031;-31
2024/01/16 02:02:13;;;;;;;3.58;1.00;;;22.20;42.70;;;;;;5111780;28;20047;-31
2024/01/16 02:04:41;;;;;;;2.75;1.00;;;22.20;42.90;;;;;;5112636;28;20030;-33
2024/01/16 02:07:07;;;;;;;;;;;22.30;42.80;;;;;;5112611;28;20076;-36
2024/01/16 02:09:37;;;;;;;3.33;0.95;;;22.30;42.80;;;;;;5112454;28;19918;-37
2024/01/16 02:12:06;;;;;;;1.38;0.90;;;22.30;42.80;;;;;;5110450;28;20806;-31
2024/01/16 02:14:33;;;;;;;2.90;0.85;;;22.30;42.80;;;;;;5113062;28;20040;-34
2024/01/16 02:17:00;;;;;;;1.88;0.80;;;22.20;42.70;;;;;;5110957;28;20054;-35
2024/01/16 02:19:27;;;;;;;3.20;0.98;;;22.20;42.80;;;;;;5108163;28;20070;-35
2024/01/16 02:21:55;;;;;;;1.15;0.88;;;22.30;42.80;;;;;;5105698;28;20058;-32
2024/01/16 02:24:22;;;;;;;3.60;0.90;;;22.30;42.70;;;;;;5108594;28;20181;-35
2024/01/16 02:26:50;;;;;;;2.20;1.17;;;22.30;42.70;;;;;;5110737;28;20105;-34
2024/01/16 02:29:17;;;;;;;2.00;1.27;;;22.20;42.70;;;;;;5112278;28;20053;-32
2024/01/16 02:31:44;;;;;;;1.58;1.08;;;22.20;42.70;;;;;;5113331;28;20032;-34
2024/01/16 02:34:10;;;;;;;2.00;1.20;;;22.20;42.70;;;;;;5113526;28;20038;-32
2024/01/16 02:36:37;;;;;;;1.65;1.10;;;22.20;42.80;;;;;;5111839;28;20034;-32
2024/01/16 02:39:06;;;;;;;1.83;1.50;;;22.30;42.70;;;;;;5112490;28;20032;-33
2024/01/16 02:41:33;;;;;;;1.83;1.40;;;22.30;42.70;;;;;;5112132;28;20036;-35
2024/01/16 02:44:01;;;;;;;1.58;1.30;;;22.20;42.60;;;;;;5111759;28;20064;-35
2024/01/16 02:46:28;;;;;;;1.55;1.20;;;22.20;42.60;;;;;;5116652;28;20043;-36
2024/01/16 02:48:55;;;;;;;;;;;22.10;42.60;;;;;;5119960;28;20023;-36
2024/01/16 02:51:22;;;;;;;1.77;1.15;;;22.20;42.80;;;;;;5124550;27;19912;-37
2024/01/16 02:53:49;;;;;;;1.95;1.50;;;22.20;42.60;;;;;;5120012;28;20544;-35
2024/01/16 02:56:15;;;;;;;1.92;1.33;;;22.20;42.60;;;;;;5119474;28;20035;-35
2024/01/16 02:58:42;;;;;;;1.75;1.30;;;22.20;42.60;;;;;;5118930;28;20042;-34
2024/01/16 03:01:09;;;;;;;2.38;1.45;;;22.10;42.70;;;;;;5123861;28;20039;-36
2024/01/16 03:03:35;;;;;;;1.65;1.33;;;22.10;42.70;;;;;;5122372;28;20122;-34
2024/01/16 03:06:02;;;;;;;2.28;1.40;;;22.10;42.70;;;;;;5118561;28;20031;-35
2024/01/16 03:08:29;;;;;;;1.48;1.25;;;22.20;42.80;;;;;;5121608;28;20028;-31
2024/01/16 03:10:56;;;;;;;2.08;1.55;;;22.20;42.70;;;;;;5120144;28;20036;-35
2024/01/16 03:13:23;;;;;;;1.48;1.10;;;22.20;42.70;;;;;;5120046;28;20673;-36
2024/01/16 03:15:50;;;;;;;1.65;1.30;;;22.10;42.70;;;;;;5115022;28;20028;-37
2024/01/16 03:18:17;;;;;;;2.08;1.30;;;22.10;42.70;;;;;;5124305;28;20058;-36
2024/01/16 03:20:45;;;;;;;2.13;1.20;;;22.10;42.80;;;;;;5123213;28;20551;-33
2024/01/16 03:23:12;;;;;;;2.17;1.42;;;22.20;42.80;;;;;;5120397;28;20065;-35
2024/01/16 03:25:38;;;;;;;1.80;1.40;;;22.20;42.80;;;;;;5113768;28;20058;-36
2024/01/16 03:28:10;;;;;;;1.88;1.30;;;22.20;42.70;;;;;;5110281;28;20051;-31
2024/01/16 03:30:37;;;;;;;1.65;1.27;;;22.20;42.80;;;;;;5109008;28;20109;-35
2024/01/16 03:33:04;;;;;;;1.73;1.33;;;22.10;42.80;;;;;;5109566;28;20129;-37
2024/01/16 03:35:30;;;;;;;1.20;1.10;;;22.10;43.00;;;;;;5116888;28;20020;-34
2024/01/16 03:37:57;;;;;;;1.20;1.00;;;22.10;43.00;;;;;;5112248;28;20115;-31
2024/01/16 03:40:23;;;;;;;2.88;1.40;;;22.20;42.90;;;;;;5113902;28;20124;-35
2024/01/16 03:42:50;;;;;;;1.52;1.10;;;22.20;42.80;;;;;;5115781;28;20072;-32
2024/01/16 03:45:17;;;;;;;1.45;1.25;;;22.20;42.90;;;;;;5111626;28;20028;-31
2024/01/16 03:47:44;;;;;;;1.05;0.95;;;22.10;42.80;;;;;;5119307;28;20051;-34
2024/01/16 03:50:11;;;;;;;1.92;1.30;;;22.10;42.90;;;;;;5110732;28;20081;-36
2024/01/16 03:52:38;;;;;;;1.48;1.08;;;22.10;42.90;;;;;;5115941;28;20815;-36
2024/01/16 03:55:05;;;;;;;1.30;1.20;;;22.20;42.90;;;;;;5113813;28;20057;-36
2024/01/16 03:57:31;;;;;;;1.52;1.38;;;22.20;42.90;;;;;;5111813;28;20126;-36
2024/01/16 03:59:58;;;;;;;1.40;1.13;;;22.20;42.90;;;;;;5111532;28;20092;-36
2024/01/16 04:02:24;;;;;;;1.42;1.10;;;22.10;42.80;;;;;;5111002;28;20056;-34
2024/01/16 04:04:51;;;;;;;1.25;1.00;;;22.10;42.90;;;;;;5113494;28;20020;-36
2024/01/16 04:07:18;;;;;;;1.45;1.20;;;22.10;42.90;;;;;;5112017;28;20020;-32
2024/01/16 04:09:44;;;;;;;1.35;1.15;;;22.20;42.90;;;;;;5116414;28;20035;-36
2024/01/16 04:12:11;;;;;;;1.27;0.95;;;22.20;42.90;;;;;;5113637;28;20990;-33
2024/01/16 04:14:38;;;;;;;1.08;0.90;;;22.20;42.90;;;;;;5116403;28;20556;-32
2024/01/16 04:17:05;;;;;;;1.75;1.20;;;22.20;42.90;;;;;;5109553;28;20484;-37
2024/01/16 04:19:33;;;;;;;1.27;0.90;;;22.10;42.90;;;;;;5107847;28;20023;-34
2024/01/16 04:22:01;;;;;;;1.58;1.20;;;22.10;43.00;;;;;;5110599;28;20549;-31
2024/01/16 04:24:27;;;;;;;;;;;22.20;43.00;;;;;;5113157;27;20110;-36
2024/01/16 04:26:54;;;;;;;1.52;1.10;;;22.20;42.90;;;;;;5110264;27;19923;-34
2024/01/16 04:29:20;;;;;;;1.23;1.10;;;22.20;42.90;;;;;;5107454;28;20032;-34
2024/01/16 04:31:46;;;;;;;1.60;1.10;;;22.10;42.90;;;;;;5111404;28;20028;-33
2024/01/16 04:34:12;;;;;;;1.98;1.10;;;22.10;43.00;;;;;;5120087;28;20035;-36
2024/01/16 04:36:38;;;;;;;2.30;1.40;;;22.10;43.00;;;;;;5115629;28;20465;-36
2024/01/16 04:39:04;;;;;;;1.48;1.02;;;22.10;43.00;;;;;;5115829;28;20039;-34
2024/01/16 04:41:31;;;;;;;1.35;1.10;;;22.20;42.90;;;;;;5115500;28;20121;-34
2024/01/16 04:43:57;;;;;;;1.17;1.00;;;22.20;42.90;;;;;;5120427;28;20032;-32
2024/01/16 04:46:23;;;;;;;2.10;1.20;;;22.20;43.00;;;;;;5110973;28;20032;-37
2024/01/16 04:48:50;;;;;;;1.30;1.00;;;22.10;43.00;;;;;;5113236;28;20028;-36
2024/01/16 04:51:16;;;;;;;1.42;1.00;;;22.10;43.00;;;;;;5111608;28;20032;-35
2024/01/16 04:53:42;;;;;;;4.85;1.13;;;22.10;43.10;;;;;;5116084;28;20870;-37
2024/01/16 04:56:08;;;;;;;1.00;0.77;;;22.20;43.00;;;;;;5117621;28;20031;-35
2024/01/16 04:58:34;;;;;;;3.00;1.17;;;22.20;43.00;;;;;;5120140;28;20669;-34
2024/01/16 05:01:00;;;;;;;1.42;1.00;;;22.20;43.10;;;;;;5116760;28;20019;-35
2024/01/16 05:03:27;;;;;;;1.20;1.00;;;22.20;43.10;;;;;;5120964;28;20034;-34
2024/01/16 05:05:53;;;;;;;1.70;1.33;;;22.10;43.10;;;;;;5122446;28;20034;-35
2024/01/16 05:08:19;;;;;;;1.35;1.00;;;22.10;43.10;;;;;;5121511;28;20039;-34
2024/01/16 05:10:45;;;;;;;3.17;1.10;;;22.20;43.10;;;;;;5118035;28;20083;-35
2024/01/16 05:13:12;;;;;;;1.65;1.08;;;22.20;43.10;;;;;;5118248;28;20059;-36
2024/01/16 05:15:38;;;;;;;1.17;1.02;;;22.20;43.10;;;;;;5120142;28;20039;-37
2024/01/16 05:18:04;;;;;;;1.50;1.30;;;22.20;43.10;;;;;;5118090;28;20039;-34
2024/01/16 05:20:31;;;;;;;1.58;1.02;;;22.10;43.10;;;;;;5113911;28;20019;-33
2024/01/16 05:22:57;;;;;;;1.50;1.10;;;22.10;43.20;;;;;;5105551;28;20040;-34
2024/01/16 05:25:23;;;;;;;1.40;1.10;;;22.20;43.10;;;;;;5108432;28;20043;-34
2024/01/16 05:27:49;;;;;;;1.17;1.00;;;22.20;43.10;;;;;;5113515;28;20124;-37
2024/01/16 05:30:16;;;;;;;1.92;1.33;;;22.20;43.60;;;;;;5104094;28;20029;-36
2024/01/16 05:32:42;;;;;;;1.60;1.20;;;22.20;43.10;;;;;;5112652;27;20036;-35
2024/01/16 05:35:09;;;;;;;2.05;1.17;;;22.20;43.10;;;;;;5108871;28;20499;-37
2024/01/16 05:37:35;;;;;;;2.13;1.45;;;22.10;43.30;;;;;;5107574;28;20044;-36
2024/01/16 05:40:03;;;;;;;1.20;1.10;;;22.20;43.20;;;;;;5113147;28;20080;-40
2024/01/16 05:42:29;;;;;;;;;;;22.20;43.20;;;;;;5113698;28;20036;-31
2024/01/16 05:44:55;;;;;;;1.70;1.27;;;22.20;43.20;;;;;;5109994;28;19937;-35
2024/01/16 05:47:24;;;;;;;1.40;1.10;;;22.20;43.20;;;;;;5114615;28;20039;-34
2024/01/16 05:49:50;;;;;;;1.25;1.05;;;22.20;43.30;;;;;;5112931;28;20032;-35
2024/01/16 05:52:16;;;;;;;1.92;1.08;;;22.10;43.30;;;;;;5113570;28;20173;-35
2024/01/16 05:54:42;;;;;;;1.53;1.40;;;22.20;43.30;;;;;;5118239;28;20031;-33
2024/01/16 05:57:08;;;;;;;2.90;1.17;;;22.20;43.20;;;;;;5115868;28;20027;-32
2024/01/16 05:59:35;;;;;;;1.33;1.08;;;22.20;43.20;;;;;;5117146;28;20027;-35
2024/01/16 06:02:01;;;;;;;1.70;1.48;;;22.20;43.20;;;;;;5117391;28;20043;-32
2024/01/16 06:04:27;;;;;;;1.60;1.10;;;22.20;43.20;;;;;;5119606;28;20494;-34
2024/01/16 06:06:53;;;;;;;1.70;1.55;;;22.10;43.30;;;;;;5117772;28;20034;-36
2024/01/16 06:09:19;;;;;;;1.83;1.30;;;22.10;43.30;;;;;;5118668;28;20046;-35
2024/01/16 06:11:45;;;;;;;1.80;1.50;;;22.20;43.20;;;;;;5114610;28;20108;-34
2024/01/16 06:14:12;;;;;;;1.83;1.40;;;22.20;43.20;;;;;;5119226;28;20031;-31
2024/01/16 06:16:38;;;;;;;1.23;1.10;;;22.20;43.10;;;;;;5119495;28;20130;-35
2024/01/16 06:19:05;;;;;;;1.40;1.10;;;22.20;43.20;;;;;;5111548;28;20067;-33
2024/01/16 06:21:31;;;;;;;1.67;1.40;;;22.20;43.20;;;;;;5112951;28;20095;-36
2024/01/16 06:23:57;;;;;;;2.80;1.10;;;22.10;43.20;;;;;;5106482;28;20035;-35
2024/01/16 06:26:23;;;;;;;1.55;1.40;;;22.20;43.20;;;;;;5110469;28;20052;-35
2024/01/16 06:28:49;;;;;;;1.55;1.40;;;22.20;43.20;;;;;;5108733;28;20032;-31
2024/01/16 06:31:17;;;;;;;1.55;1.25;;;22.20;43.10;;;;;;5110981;28;20040;-34
2024/01/16 06:33:43;;;;;;;1.60;1.23;;;22.20;43.20;;;;;;5111813;28;20040;-36
2024/01/16 06:36:10;;;;;;;1.55;1.20;;;22.20;43.20;;;;;;5106799;28;20024;-33
2024/01/16 06:38:39;;;;;;;1.58;1.48;;;22.10;43.20;;;;;;5111937;28;20060;-36
2024/01/16 06:41:06;;;;;;;1.92;1.45;;;22.10;43.20;;;;;;5110539;28;20032;-33
2024/01/16 06:43:32;;;;;;;1.63;1.13;;;22.20;43.20;;;;;;5118717;28;20039;-34
2024/01/16 06:45:58;;;;;;;2.83;1.70;;;22.20;43.10;;;;;;5111514;28;20089;-37
2024/01/16 06:48:25;;;;;;;1.60;1.50;;;22.20;43.10;;;;;;5114727;28;20059;-35
2024/01/16 06:50:51;;;;;;;1.58;1.40;;;22.20;43.30;;;;;;5110288;28;20278;-33
2024/01/16 06:53:17;;;;;;;2.17;1.55;;;22.10;43.30;;;;;;5108610;28;20032;-36
2024/01/16 06:55:43;;;;;;;3.22;1.65;;;22.20;43.40;;;;;;5108471;28;20040;-34
2024/01/16 06:58:10;;;;;;;2.55;1.85;;;22.20;43.30;;;;;;5110127;28;20020;-34
2024/01/16 07:00:36;;;;;;;1.88;1.58;;;22.20;43.30;;;;;;5114086;28;20028;-33
2024/01/16 07:03:02;;;;;;;1.87;1.67;;;22.20;43.30;;;;;;5114861;28;20052;-32
2024/01/16 07:05:29;;;;;;;2.10;1.70;;;22.20;43.60;;;;;;5111456;28;20034;-35
2024/01/16 07:07:55;;;;;;;2.22;1.70;;;22.20;43.70;;;;;;5116115;28;20035;-33
2024/01/16 07:10:23;;;;;;;1.80;1.50;;;22.10;43.90;;;;;;5117064;28;20027;-34
2024/01/16 07:12:50;;;;;;;2.10;1.77;;;22.20;44.00;;;;;;5112390;28;20039;-34
2024/01/16 07:15:18;;;;;;;1.80;1.52;;;22.20;43.60;;;;;;5115941;28;20024;-32
2024/01/16 07:17:44;;;;;;;1.98;1.73;;;22.20;43.50;;;;;;5113614;28;20047;-34
2024/01/16 07:20:10;;;;;;;2.03;1.80;;;22.20;43.50;;;;;;5110933;28;20038;-35
2024/01/16 07:22:39;;;;;;;1.98;1.70;;;22.20;43.50;;;;;;5110382;28;20040;-35
2024/01/16 07:25:06;;;;;;;3.25;1.70;;;22.10;43.50;;;;;;5117120;28;20028;-35
2024/01/16 07:27:33;;;;;;;2.15;1.80;;;22.10;43.60;;;;;;5119650;28;20043;-33
2024/01/16 07:29:59;;;;;;;2.00;1.80;;;22.20;43.60;;;;;;5114676;28;20039;-31
2024/01/16 07:32:25;;;;;;;3.05;1.98;;;22.20;43.40;;;;;;5109457;28;20740;-35
2024/01/16 07:34:52;;;;;;;4.00;1.83;;;22.20;43.40;;;;;;5116057;27;20080;-35
2024/01/16 07:37:18;;;;;;;;;;;22.20;43.40;;;;;;5118919;28;20031;-30
2024/01/16 07:39:44;;;;;;;2.20;1.60;;;22.10;43.40;;;;;;5111375;28;20010;-34
2024/01/16 07:42:11;;;;;;;1.85;1.45;;;22.10;43.40;;;;;;5105679;28;20028;-36
2024/01/16 07:44:37;;;;;;;2.13;1.70;;;22.10;43.50;;;;;;5114060;28;20048;-32
2024/01/16 07:47:03;;;;;;;1.67;1.58;;;22.20;43.40;;;;;;5118128;27;20024;-35
2024/01/16 07:49:29;;;;;;;1.95;1.65;;;22.20;43.40;;;;;;5120230;28;20087;-35
2024/01/16 07:51:55;;;;;;;2.25;1.80;;;22.20;43.30;;;;;;5115718;28;20030;-31
2024/01/16 07:54:22;;;;;;;2.17;1.67;;;22.10;43.30;;;;;;5112204;28;20028;-33
2024/01/16 07:56:48;;;;;;;2.00;1.70;;;22.10;43.40;;;;;;5117927;28;20032;-36
2024/01/16 07:59:14;;;;;;;3.10;1.60;;;22.10;43.50;;;;;;5117918;28;20051;-34
2024/01/16 08:01:40;;;;;;;1.98;1.52;;;22.10;43.40;;;;;;5121829;28;20076;-31
2024/01/16 08:04:06;;;;;;;1.65;1.40;;;22.20;43.40;;;;;;5110652;28;20036;-31
2024/01/16 08:06:32;;;;;;;1.50;1.25;;;22.20;43.40;;;;;;5112791;28;20032;-33
2024/01/16 08:08:58;;;;;;;1.98;1.55;;;22.10;43.40;;;;;;5110903;28;20027;-31
2024/01/16 08:11:24;;;;;;;1.95;1.48;;;22.10;43.50;;;;;;5113740;28;20024;-30
2024/01/16 08:13:50;;;;;;;2.05;1.48;;;22.10;43.40;;;;;;5118792;28;20035;-32
2024/01/16 08:16:17;;;;;;;1.95;1.60;;;22.20;43.40;;;;;;5116414;27;20034;-35
2024/01/16 08:18:43;;;;;;;2.00;1.40;;;22.20;43.40;;;;;;5112303;28;21483;-33
2024/01/16 08:21:09;;;;;;;1.65;1.40;;;22.10;43.40;;;;;;5120360;28;20062;-35
2024/01/16 08:23:35;;;;;;;1.70;1.30;;;22.10;43.70;;;;;;5115371;28;20039;-32
2024/01/16 08:26:01;;;;;;;1.55;1.27;;;22.10;43.70;;;;;;5117938;28;20063;-35
2024/01/16 08:28:28;;;;;;;1.52;1.20;;;22.10;43.70;;;;;;5114089;28;20040;-32
2024/01/16 08:30:54;;;;;;;1.70;1.43;;;22.10;43.60;;;;;;5107145;27;20512;-32
2024/01/16 08:33:20;;;;;;;1.75;1.35;;;22.20;43.60;;;;;;5105392;28;20319;-32
2024/01/16 08:35:46;;;;;;;1.83;1.30;;;22.20;43.70;;;;;;5113895;28;20028;-32
2024/01/16 08:38:12;;;;;;;1.30;1.20;;;22.10;43.70;;;;;;5108298;28;20115;-31
2024/01/16 08:40:39;;;;;;;1.13;1.02;;;22.10;43.70;;;;;;5115104;28;20030;-30
2024/01/16 08:43:05;;;;;;;1.70;1.40;;;22.10;43.70;;;;;;5110279;27;20050;-30
2024/01/16 08:45:31;;;;;;;1.77;1.17;;;22.10;43.70;;;;;;5118654;27;20032;-31
2024/01/16 08:47:58;;;;;;;1.30;1.17;;;22.20;43.70;;;;;;5110469;28;20050;-34
2024/01/16 08:50:24;;;;;;;2.75;1.40;;;22.20;43.70;;;;;;5110931;28;20039;-32
2024/01/16 08:52:51;;;;;;;1.77;1.15;;;22.10;43.70;;;;;;5114491;28;20077;-33
2024/01/16 08:55:17;;;;;;;1.57;1.10;;;22.10;43.70;;;;;;5107875;28;20047;-31
2024/01/16 08:57:43;;;;;;;1.80;1.20;;;22.10;43.80;;;;;;5112499;28;20286;-35
2024/01/16 09:00:10;;;;;;;2.00;1.25;;;22.10;44.40;;;;;;5113640;28;20028;-33
2024/01/16 09:02:36;;;;;;;1.60;1.30;;;22.10;43.80;;;;;;5114473;27;20043;-32
2024/01/16 09:05:02;;;;;;;1.50;1.40;;;22.10;43.70;;;;;;5113571;28;20278;-33
2024/01/16 09:07:28;;;;;;;2.45;1.42;;;22.10;43.70;;;;;;5114685;28;20066;-31
2024/01/16 09:09:55;;;;;;;1.45;1.20;;;22.10;43.80;;;;;;5111011;28;20043;-31
2024/01/16 09:12:21;;;;;;;2.08;1.35;;;22.00;43.80;;;;;;5114722;28;20024;-33
2024/01/16 09:14:47;;;;;;;1.27;1.17;;;22.10;43.80;;;;;;5113280;28;20476;-33
2024/01/16 09:17:13;;;;;;;1.70;1.38;;;22.10;43.70;;;;;;5111077;28;20661;-35
2024/01/16 09:19:39;;;;;;;1.40;1.30;;;22.20;43.80;;;;;;5114756;28;20058;-33
2024/01/16 09:22:05;;;;;;;1.40;1.13;;;22.20;43.80;;;;;;5117202;28;20043;-34
2024/01/16 09:24:32;;;;;;;1.48;1.38;;;22.10;43.90;;;;;;5116117;28;20119;-35
2024/01/16 09:26:58;;;;;;;2.05;1.10;;;22.00;43.90;;;;;;5107999;28;20056;-31
2024/01/16 09:29:24;;;;;;;1.38;1.20;;;22.00;43.90;;;;;;5112982;27;20088;-32
2024/01/16 09:31:51;;;;;;;1.50;1.17;;;22.10;43.90;;;;;;5111310;28;20026;-31
2024/01/16 09:34:17;;;;;;;1.30;1.20;;;22.20;43.90;;;;;;5111107;28;20067;-32
2024/01/16 09:36:44;;;;;;;1.45;1.15;;;22.20;43.90;;;;;;5113418;28;20038;-30
2024/01/16 09:39:16;;;;;;;1.20;1.10;;;22.10;43.90;;;;;;5106856;27;20039;-31
2024/01/16 09:41:42;;;;;;;1.10;1.00;;;22.10;44.00;;;;;;5108943;28;20032;-33
2024/01/16 09:44:08;;;;;;;1.33;1.10;;;22.00;44.00;;;;;;5113951;28;20036;-31
2024/01/16 09:46:35;;;;;;;1.80;1.20;;;22.10;44.10;;;;;;5114787;27;20034;-32
2024/01/16 09:49:04;;;;;;;1.77;1.17;;;22.10;43.90;;;;;;5115799;28;20118;-34
2024/01/16 09:51:30;;;;;;;2.40;1.20;;;22.10;43.90;;;;;;5116850;28;20042;-31
2024/01/16 09:53:56;;;;;;;1.25;1.15;;;22.10;43.90;;;;;;5112931;28;20020;-35
2024/01/16 09:56:26;;;;;;;1.20;1.10;;;22.10;43.90;;;;;;5111433;28;20028;-32
2024/01/16 09:58:57;;;;;;;1.73;1.30;;;22.00;44.00;;;;;;5109051;28;20064;-33
2024/01/16 10:01:24;;;;;;;1.73;1.00;;;22.10;44.20;;;;;;5113352;28;20034;-31
2024/01/16 10:03:51;;;;;;;1.45;1.08;;;22.10;44.10;;;;;;5115879;27;20024;-31
2024/01/16 10:06:17;;;;;;;1.23;1.13;;;22.20;44.10;;;;;;5116498;28;20031;-33
2024/01/16 10:08:43;;;;;;;1.40;1.13;;;22.20;44.10;;;;;;5108926;28;20034;-29
2024/01/16 10:11:09;;;;;;;3.13;1.20;;;22.10;44.10;;;;;;5114971;28;20525;-32
2024/01/16 10:13:35;;;;;;;2.58;1.15;;;22.10;44.10;;;;;;5118342;28;20035;-30
2024/01/16 10:16:03;;;;;;;1.55;1.20;;;22.10;44.20;;;;;;5101615;28;20737;-32
2024/01/16 10:18:30;;;;;;;1.30;0.95;;;22.10;44.40;;;;;;5118150;28;20115;-34
2024/01/16 10:20:56;;;;;;;2.60;1.30;;;22.20;44.30;;;;;;5115987;28;20028;-32
2024/01/16 10:23:24;;;;;;;2.60;1.00;;;22.20;44.30;;;;;;5111111;28;20075;-33
2024/01/16 10:26:09;;;;;;;1.58;1.20;;;22.20;44.30;;;;;;5113601;28;20043;-29
2024/01/16 10:28:36;;;;;;;1.75;1.27;;;22.10;44.30;;;;;;5114144;28;21040;-32
2024/01/16 10:31:03;;;;;;;1.65;1.20;;;22.10;44.40;;;;;;5110629;28;20063;-29
2024/01/16 10:33:29;;;;;;;1.20;1.10;;;22.10;44.30;;;;;;5106089;28;20120;-31
2024/01/16 10:36:16;;;;;;;2.90;1.17;;;22.20;44.20;;;;;;5110478;28;20032;-30
2024/01/16 10:38:43;;;;;;;1.20;0.95;;;22.20;44.20;;;;;;5107771;28;20028;-34
2024/01/16 10:41:13;;;;;;;1.40;1.13;;;22.20;44.80;;;;;;5108039;28;20036;-34
2024/01/16 10:43:40;;;;;;;1.08;0.93;;;22.10;44.20;;;;;;5110796;28;20044;-31
2024/01/16 10:46:11;;;;;;;1.42;0.95;;;22.10;44.20;;;;;;5109407;28;20027;-35
2024/01/16 10:48:37;;;;;;;1.38;1.15;;;22.10;44.20;;;;;;5110390;28;20052;-29
2024/01/16 10:51:05;;;;;;;0.80;0.80;;;22.20;44.10;;;;;;5106655;28;20113;-32
2024/01/16 10:53:33;;;;;;;1.20;1.10;;;22.20;44.10;;;;;;5111974;28;20024;-32
2024/01/16 10:56:00;;;;;;;1.20;1.08;;;22.20;44.10;;;;;;5109457;28;20064;-34
2024/01/16 10:58:28;;;;;;;1.67;1.00;;;22.10;44.10;;;;;;5110737;28;20083;-33
2024/01/16 11:00:54;;;;;;;1.05;0.88;;;22.10;44.10;;;;;;5116471;28;20038;-34
2024/01/16 11:03:38;;;;;;;1.23;1.00;;;22.10;44.10;;;;;;5117515;28;20039;-32
2024/01/16 11:06:07;;;;;;;1.33;0.95;;;22.10;43.90;;;;;;5113561;28;20047;-34
2024/01/16 11:08:37;;;;;;;0.90;0.82;;;22.20;44.00;;;;;;5124049;28;20036;-31
2024/01/16 11:11:04;;;;;;;1.00;0.90;;;22.20;44.00;;;;;;5123136;28;20027;-33
2024/01/16 11:13:34;;;;;;;1.08;0.80;;;22.10;43.90;;;;;;5122644;27;20031;-32
2024/01/16 11:16:07;;;;;;;1.33;0.80;;;22.10;44.00;;;;;;5119690;28;20045;-34
2024/01/16 11:18:34;;;;;;;0.95;0.60;;;22.10;44.00;;;;;;5117820;27;20072;-32
2024/01/16 11:21:01;;;;;;;2.67;0.57;;;22.10;43.80;;;;;;5116546;28;20034;-34
2024/01/16 11:23:27;;;;;;;1.23;0.70;;;22.20;43.90;;;;;;5117593;28;20039;-35
2024/01/16 11:25:54;;;;;;;0.95;0.85;;;22.10;43.80;;;;;;5118644;28;20063;-30
2024/01/16 11:28:20;;;;;;;0.55;0.50;;;22.10;43.80;;;;;;5118781;28;20048;-33
2024/01/16 11:30:46;;;;;;;0.57;0.50;;;22.10;43.90;;;;;;5120549;28;20035;-31
2024/01/16 11:33:31;;;;;;;3.08;0.60;;;22.10;43.80;;;;;;5119722;28;20065;-33
2024/01/16 11:35:57;;;;;;;0.50;0.50;;;22.20;43.80;;;;;;5119514;27;20019;-33
2024/01/16 11:38:26;;;;;;;0.50;0.50;;;22.20;43.80;;;;;;5119979;27;20023;-30
2024/01/16 11:40:55;;;;;;;0.80;0.60;;;22.10;43.70;;;;;;5111098;28;20032;-30
2024/01/16 11:43:34;;;;;;;1.25;0.63;;;22.10;43.70;;;;;;5106633;28;20028;-32
2024/01/16 11:46:01;;;;;;;0.70;0.60;;;22.10;43.80;;;;;;5112746;28;20023;-34
2024/01/16 11:48:28;;;;;;;0.68;0.60;;;22.10;43.90;;;;;;5112495;28;20038;-31
2024/01/16 11:50:54;;;;;;;0.82;0.50;;;22.10;43.80;;;;;;5113409;28;20027;-35
2024/01/16 11:53:41;;;;;;;0.70;0.50;;;22.10;43.80;;;;;;5110359;28;20024;-35
2024/01/16 11:56:19;;;;;;;0.80;0.52;;;22.10;43.80;;;;;;5111953;28;20032;-31
2024/01/16 11:58:51;;;;;;;1.00;0.57;;;22.10;43.80;;;;;;5112640;28;20068;-33
2024/01/16 12:01:19;;;;;;;1.25;0.68;;;22.00;43.80;;;;;;5120692;28;20037;-33
2024/01/16 12:03:46;;;;;;;0.60;0.50;;;22.00;43.70;;;;;;5109031;28;20049;-29
2024/01/16 12:06:15;;;;;;;0.68;0.52;;;22.10;43.60;;;;;;5115479;28;20043;-33
2024/01/16 12:08:42;;;;;;;0.60;0.60;;;22.10;43.50;;;;;;5111549;28;20028;-30
2024/01/16 12:11:08;;;;;;;0.70;0.47;;;22.10;43.50;;;;;;5113083;28;20031;-34
2024/01/16 12:13:34;;;;;;;0.47;0.40;;;22.10;43.50;;;;;;5110815;28;20035;-31
2024/01/16 12:16:06;;;;;;;0.65;0.50;;;22.00;43.40;;;;;;5113913;28;20038;-31
2024/01/16 12:18:32;;;;;;;0.70;0.50;;;22.00;43.50;;;;;;5110757;27;21352;-35
2024/01/16 12:21:10;;;;;;;0.68;0.50;;;22.10;43.40;;;;;;5116147;28;20035;-29
2024/01/16 12:23:36;;;;;;;0.70;0.47;;;22.10;43.30;;;;;;5098380;28;20066;-32
2024/01/16 12:26:03;;;;;;;0.65;0.47;;;22.10;43.30;;;;;;5114746;28;20044;-30
2024/01/16 12:28:30;;;;;;;0.55;0.30;;;22.10;43.20;;;;;;5108159;28;20048;-32
2024/01/16 12:30:56;;;;;;;0.40;0.30;;;22.00;43.20;;;;;;5110447;28;21242;-30
2024/01/16 12:33:22;;;;;;;0.20;0.20;;;22.00;43.30;;;;;;5114823;28;20042;-31
2024/01/16 12:35:49;;;;;;;0.63;0.28;;;22.00;43.20;;;;;;5096612;28;20035;-34
2024/01/16 12:38:16;;;;;;;0.63;0.40;;;22.10;43.20;;;;;;5115558;28;20034;-32
2024/01/16 12:40:49;;;;;;;1.15;0.38;;;22.10;43.10;;;;;;5115870;28;20031;-32
2024/01/16 12:43:18;;;;;;;0.30;0.30;;;22.00;43.10;;;;;;5113454;28;20036;-32
2024/01/16 12:45:45;;;;;;;0.45;0.30;;;22.00;43.20;;;;;;5115999;28;20037;-32
2024/01/16 12:48:11;;;;;;;0.50;0.20;;;22.00;43.20;;;;;;5115648;28;20128;-31